Time;durP1;ratioP1;P1;durP2;ratioP2;P2;SDS_P1;SDS_P2;PMS_P1;PMS_P2;Temp;Humidity;BMP_temperature;BMP_pressure;BME280_temperature;BME280_humidity;BME280_pressure;Samples;Min_cycle;Max_cycle;Signal;HPM_P1;HPM_P2
2022/03/22 00:02:15;;;;;;;8.53;6.30;;;10.00;34.10;;;11.70;30.27;100068.91;5043530;27;108317;-84
2022/03/22 00:08:23;;;;;;;8.50;6.20;;;10.40;34.60;;;11.60;30.57;100060.66;5043066;27;124840;-76
2022/03/22 00:14:40;;;;;;;7.23;5.13;;;9.70;35.10;;;11.46;30.50;100061.31;5033786;28;108337;-78
2022/03/22 01:01:10;;;;;;;6.67;5.97;;;10.40;37.20;;;10.90;32.18;100047.81;5487587;23;99127;-83
2022/03/22 01:07:25;;;;;;;11.03;6.63;;;9.70;37.70;;;10.82;32.02;100045.66;5002853;28;124780;-76
2022/03/22 01:13:34;;;;;;;7.27;6.03;;;9.20;37.50;;;10.76;32.31;100050.38;5003235;28;108285;-76
2022/03/22 01:19:42;;;;;;;6.73;5.53;;;9.30;37.80;;;10.68;32.41;100044.59;5002716;28;124762;-77
2022/03/22 01:37:58;;;;;;;10.97;7.17;;;8.50;37.30;;;10.33;32.24;100035.31;4986082;28;110006;-78
2022/03/22 01:44:07;;;;;;;6.70;5.60;;;9.10;38.10;;;10.25;32.46;100035.88;4985193;28;124753;-77
2022/03/22 01:50:22;;;;;;;7.10;5.63;;;9.50;38.70;;;10.18;32.97;100034.22;4985512;28;110969;-77
2022/03/22 01:56:30;;;;;;;7.63;5.97;;;8.60;38.30;;;10.11;33.34;100033.69;4984859;28;124754;-77
2022/03/22 02:09:06;;;;;;;10.47;7.17;;;8.50;39.60;;;9.91;33.98;100028.19;4985298;28;124788;-77
2022/03/22 02:15:15;;;;;;;9.43;7.57;;;7.90;39.70;;;9.76;34.36;100030.97;4985115;28;109974;-80
2022/03/22 04:00:41;;;;;;;7.33;6.30;;;8.50;42.70;;;9.00;35.79;100038.88;5967202;22;98405;-79
2022/03/22 04:06:50;;;;;;;10.80;6.53;;;7.20;41.80;;;8.97;35.69;100041.34;4982917;28;126360;-76
2022/03/22 04:13:00;;;;;;;8.53;6.40;;;7.30;42.20;;;8.92;36.11;100035.81;4983513;28;110220;-76
2022/03/22 04:19:09;;;;;;;9.07;7.30;;;8.20;43.20;;;8.89;36.12;100045.44;4982442;28;125097;-78
2022/03/22 04:25:10;;;;;;;8.73;7.00;;;7.40;42.80;;;8.88;36.35;100042.97;5386874;22;109878;-77
2022/03/22 04:37:49;;;;;;;8.03;6.27;;;6.90;42.90;;;8.71;36.54;100044.03;4983119;28;110240;-77
2022/03/22 04:43:58;;;;;;;10.93;7.77;;;7.10;43.20;;;8.66;37.04;100057.78;4982516;28;125114;-77
2022/03/22 04:50:13;;;;;;;16.27;10.10;;;7.10;43.60;;;8.45;36.86;100064.28;4982535;28;111445;-78
2022/03/22 05:02:50;;;;;;;11.73;8.67;;;6.80;43.60;;;8.23;37.43;100069.91;4986164;28;110170;-79
2022/03/22 05:08:58;;;;;;;14.93;10.00;;;6.40;43.50;;;8.11;37.13;100076.44;4985698;28;125118;-77
2022/03/22 05:15:09;;;;;;;17.30;9.37;;;6.10;43.40;;;7.99;37.74;100088.75;4986131;28;110179;-77
2022/03/22 05:45:37;;;;;;;16.70;9.23;;;7.20;45.50;;;7.79;38.35;100106.75;5696307;22;98735;-78
2022/03/22 05:51:46;;;;;;;14.60;9.90;;;7.50;45.90;;;7.75;38.21;100106.41;4985129;28;111146;-79
2022/03/22 05:54:15;;;;;;;14.07;10.10;;;8.80;46.90;;;7.75;38.69;100105.59;4985284;28;111340;-87
2022/03/22 06:00:26;;;;;;;16.50;11.07;;;6.10;45.00;;;7.70;38.39;100105.56;4984779;28;124729;-87
2022/03/22 06:06:35;;;;;;;16.67;9.97;;;5.70;44.90;;;7.78;38.84;100096.81;4973543;28;109909;-79
2022/03/22 06:12:54;;;;;;;11.27;7.53;;;6.50;45.60;;;7.95;38.22;100096.66;4965143;28;124717;-84
2022/03/22 06:19:02;;;;;;;11.60;8.63;;;5.80;46.10;;;8.13;39.39;100087.19;4965342;28;110066;-81
2022/03/22 06:33:08;;;;;;;12.43;8.10;;;7.90;48.50;;;8.73;39.24;100085.94;5003681;28;125076;-80
2022/03/22 06:39:16;;;;;;;9.47;7.40;;;8.10;47.60;;;8.93;38.73;100095.38;4984568;28;110254;-84
2022/03/22 06:45:25;;;;;;;11.07;8.23;;;8.30;47.20;;;9.19;38.41;100080.56;5003693;28;125112;-78
2022/03/22 06:51:35;;;;;;;11.03;7.63;;;8.50;46.80;;;9.36;38.09;100082.25;5002018;28;110745;-83
2022/03/22 06:57:44;;;;;;;10.90;7.80;;;8.70;46.60;;;9.54;37.66;100089.16;5003365;28;125111;-82
2022/03/22 07:00:49;;;;;;;15.10;9.30;;;8.80;46.60;;;9.58;37.43;100102.16;5002585;28;124338;-90
2022/03/22 07:03:18;;;;;;;14.50;8.40;;;8.80;46.10;;;9.62;37.13;100102.44;4969751;28;109065;-80
2022/03/22 07:13:11;;;;;;;12.07;8.67;;;9.00;45.60;;;9.73;37.22;100104.13;5002743;28;124869;-79
2022/03/22 07:15:40;;;;;;;12.37;9.10;;;9.00;45.50;;;9.80;36.97;100107.41;5003308;28;112195;-81
2022/03/22 07:18:27;;;;;;;17.03;9.70;;;9.10;45.60;;;9.84;36.99;100108.53;4986296;28;109705;-79
2022/03/22 07:48:06;;;;;;;13.97;9.47;;;10.20;44.50;;;10.30;36.22;100110.47;5001154;28;124911;-93
2022/03/22 07:57:24;;;;;;;11.00;8.53;;;9.60;44.50;;;10.50;35.65;100118.72;4961999;28;125137;-84
2022/03/22 08:00:10;;;;;;;16.30;10.23;;;9.40;44.10;;;10.56;35.52;100111.25;4950628;28;123625;-92
2022/03/22 08:03:23;;;;;;;14.67;9.60;;;9.80;44.20;;;10.63;35.55;100113.72;4962900;28;108122;-93
2022/03/22 08:16:23;;;;;;;12.50;9.37;;;11.00;43.90;;;10.90;35.17;100125.22;5002175;28;110213;-92
2022/03/22 08:23:06;;;;;;;11.17;8.60;;;10.30;43.00;;;11.11;35.23;100112.16;4981696;28;125209;-89
2022/03/22 08:26:22;;;;;;;12.30;8.90;;;10.30;42.90;;;11.19;34.67;100116.28;4978355;28;124439;-94
2022/03/22 08:29:07;;;;;;;11.70;8.37;;;10.30;42.70;;;11.23;34.84;100112.66;4892645;28;108959;-92
2022/03/22 08:31:53;;;;;;;11.00;7.70;;;10.30;42.70;;;11.30;35.07;100115.09;4918718;28;109636;-90
2022/03/22 08:38:02;;;;;;;12.63;9.20;;;10.60;42.60;;;11.42;34.42;100112.84;4885704;28;124783;-92
2022/03/22 08:41:06;;;;;;;13.40;9.57;;;10.70;42.70;;;11.49;34.90;100112.50;4899348;28;108745;-93
2022/03/22 08:47:17;;;;;;;9.60;8.10;;;10.70;42.50;;;11.65;34.69;100110.47;4883308;28;126614;-83
2022/03/22 08:49:43;;;;;;;12.43;8.87;;;12.00;43.70;;;11.70;34.38;100110.44;4883543;29;124254;-92
2022/03/22 08:56:22;;;;;;;13.83;9.27;;;10.50;42.10;;;11.89;34.43;100105.88;4884607;28;110964;-90
2022/03/22 09:02:30;;;;;;;13.97;10.00;;;10.20;41.40;;;11.98;34.08;100094.19;4896360;28;124849;-90
2022/03/22 09:08:41;;;;;;;11.03;8.40;;;11.20;42.10;;;12.08;33.95;100097.69;4968294;28;110073;-90
2022/03/22 09:12:08;;;;;;;13.33;10.43;;;11.20;42.00;;;12.18;34.06;100099.56;4974805;28;123308;-91
2022/03/22 09:14:34;;;;;;;12.93;10.10;;;11.50;42.20;;;12.24;33.81;100090.06;4957254;28;124596;-92
2022/03/22 09:20:13;;;;;;;14.80;10.50;;;10.10;40.70;;;12.35;33.64;100091.63;5113978;22;109887;-91
2022/03/22 09:23:17;;;;;;;11.53;8.93;;;12.20;42.60;;;12.45;33.93;100100.97;4936767;28;124607;-92
2022/03/22 09:26:22;;;;;;;13.70;8.87;;;10.50;41.00;;;12.53;33.64;100089.22;4921080;28;123315;-92
2022/03/22 09:32:32;;;;;;;11.07;9.47;;;11.70;41.90;;;12.63;33.83;100080.81;4939760;28;111102;-91
2022/03/22 09:35:23;;;;;;;15.07;10.70;;;11.80;42.00;;;12.70;33.61;100088.75;4919966;28;124985;-90
2022/03/22 09:37:53;;;;;;;16.00;10.67;;;12.00;41.90;;;12.69;33.84;100076.84;4938072;28;123428;-90
2022/03/22 09:40:25;;;;;;;13.93;9.37;;;12.00;41.90;;;12.74;33.47;100084.28;4902036;28;109132;-89
2022/03/22 09:43:11;;;;;;;10.03;8.10;;;11.90;41.80;;;12.82;33.57;100086.41;4921166;28;109825;-91
2022/03/22 09:49:22;;;;;;;19.00;12.33;;;12.10;41.80;;;12.92;33.34;100088.22;4937573;28;124884;-90
2022/03/22 09:52:12;;;;;;;17.10;11.97;;;12.20;41.80;;;12.96;33.66;100075.41;4932874;28;109995;-92
2022/03/22 09:55:24;;;;;;;18.30;11.67;;;12.20;41.90;;;13.03;33.54;100073.94;4935940;28;109378;-93
2022/03/22 09:58:15;;;;;;;17.67;11.97;;;12.30;41.90;;;13.11;33.59;100075.22;4884667;28;125099;-91
2022/03/22 10:04:49;;;;;;;24.13;11.93;;;11.20;40.80;;;13.25;33.19;100073.34;4923966;28;109453;-92
2022/03/22 10:08:00;;;;;;;16.37;11.87;;;12.50;41.70;;;13.28;33.23;100058.09;4898923;28;108164;-91
2022/03/22 10:10:41;;;;;;;20.10;12.80;;;12.50;41.50;;;13.35;33.12;100066.03;4867296;28;122387;-92
2022/03/22 10:13:55;;;;;;;17.50;12.50;;;12.40;41.30;;;13.39;33.00;100059.59;4867680;28;122906;-92
2022/03/22 10:17:30;;;;;;;19.33;12.10;;;12.70;41.30;;;13.46;32.64;100059.22;4861837;28;108179;-92
2022/03/22 10:19:57;;;;;;;17.30;11.40;;;12.70;40.90;;;13.53;32.52;100059.66;4852760;29;109760;-90
2022/03/22 10:26:09;;;;;;;17.87;12.20;;;12.90;40.90;;;13.74;32.41;100053.78;4821381;29;125158;-91
2022/03/22 10:28:55;;;;;;;13.70;9.90;;;13.00;40.80;;;13.83;32.11;100052.78;4842859;29;108662;-92
2022/03/22 10:32:03;;;;;;;16.27;10.53;;;13.10;40.50;;;13.92;32.05;100056.53;4833268;29;107619;-91
2022/03/22 10:35:14;;;;;;;18.70;10.40;;;13.20;40.30;;;14.03;31.88;100050.78;4874736;28;122940;-89
2022/03/22 10:38:23;;;;;;;11.73;9.77;;;13.30;40.00;;;14.14;31.67;100041.97;4867359;28;122128;-92
2022/03/22 10:40:52;;;;;;;12.10;10.00;;;13.40;40.10;;;14.27;31.55;100042.31;4800929;29;108510;-93
2022/03/22 10:47:02;;;;;;;15.70;12.00;;;13.60;39.40;;;14.48;30.82;100035.22;4818480;29;124459;-92
2022/03/22 10:49:48;;;;;;;14.00;10.03;;;13.80;39.10;;;14.58;30.70;100029.47;4802647;29;123436;-91
2022/03/22 10:52:15;;;;;;;18.07;11.70;;;13.90;39.00;;;14.71;30.39;100030.59;4823184;29;109282;-92
2022/03/22 10:54:41;;;;;;;18.13;12.00;;;15.50;40.00;;;14.82;30.13;100022.88;4820487;29;108736;-92
2022/03/22 10:57:13;;;;;;;18.10;11.80;;;14.10;38.30;;;14.94;30.20;100025.94;4782289;29;122866;-93
2022/03/22 10:59:42;;;;;;;13.53;9.97;;;14.20;38.20;;;15.07;29.95;100031.78;4792853;29;122671;-91
2022/03/22 11:02:11;;;;;;;16.63;12.07;;;14.30;38.20;;;15.18;29.43;100033.25;4789448;29;109996;-92
2022/03/22 11:04:40;;;;;;;18.83;13.27;;;14.40;37.30;;;15.30;29.53;100019.56;4761517;29;109303;-92
2022/03/22 11:07:09;;;;;;;15.43;12.87;;;14.50;37.30;;;15.42;28.85;100027.38;4805181;29;122803;-93
2022/03/22 11:09:37;;;;;;;15.97;12.40;;;14.70;36.90;;;15.54;28.81;100030.44;4807143;29;121597;-93
2022/03/22 11:12:06;;;;;;;13.00;10.23;;;14.80;36.90;;;15.68;28.71;100033.16;4775453;29;107690;-92
2022/03/22 11:14:36;;;;;;;15.07;11.43;;;14.90;37.50;;;15.80;28.11;100025.09;4765067;29;108648;-94
2022/03/22 11:17:04;;;;;;;12.97;9.50;;;15.00;36.00;;;15.92;28.30;100018.94;4778943;28;123560;-93
2022/03/22 11:19:49;;;;;;;18.23;11.30;;;15.10;36.20;;;16.04;28.10;100012.75;4893886;28;124133;-93
2022/03/22 11:23:31;;;;;;;17.87;11.80;;;15.20;35.50;;;16.17;27.51;100014.63;4886200;28;108535;-91
2022/03/22 11:26:27;;;;;;;16.30;11.47;;;15.40;35.40;;;16.32;27.34;100013.41;4861487;28;108705;-92
2022/03/22 11:28:56;;;;;;;14.77;9.67;;;15.60;35.20;;;16.45;27.39;100006.09;4857629;29;122369;-94
2022/03/22 11:34:08;;;;;;;15.27;11.47;;;15.70;35.20;;;16.60;26.92;100007.59;4882953;28;123215;-90
2022/03/22 11:34:35;;;;;;;18.00;11.53;;;15.90;34.70;;;16.73;26.67;100007.47;4863645;28;109308;-90
2022/03/22 11:43:44;;;;;;;14.20;10.33;;;16.20;33.80;;;17.16;26.22;99998.41;4877312;28;123708;-92
2022/03/22 11:46:11;;;;;;;12.93;10.17;;;16.40;33.70;;;17.31;26.14;99994.31;4851936;28;108626;-91
2022/03/22 11:48:40;;;;;;;14.57;9.63;;;16.50;33.40;;;17.45;26.04;99989.38;4866185;28;109871;-92
2022/03/22 11:51:11;;;;;;;13.77;11.40;;;16.70;33.50;;;17.61;25.60;99992.47;4860704;28;122217;-91
2022/03/22 11:53:45;;;;;;;16.97;12.30;;;16.80;32.90;;;17.75;25.26;99994.28;4854826;28;122114;-92
2022/03/22 11:56:12;;;;;;;16.17;11.80;;;17.00;32.40;;;17.83;25.24;99993.47;4863228;28;107585;-92
2022/03/22 11:59:03;;;;;;;16.93;11.43;;;17.00;32.20;;;17.95;25.17;99988.03;4879168;28;108462;-93
2022/03/22 12:01:59;;;;;;;13.27;9.90;;;17.20;32.40;;;18.12;24.89;99983.53;4853561;29;123958;-93
2022/03/22 12:04:40;;;;;;;14.40;10.87;;;17.40;32.30;;;18.26;24.62;99979.34;4846241;28;122940;-93
2022/03/22 12:07:11;;;;;;;14.93;10.73;;;17.50;32.20;;;18.39;24.53;99976.69;4851652;29;107301;-93
2022/03/22 12:09:43;;;;;;;11.70;9.60;;;17.60;31.80;;;18.52;24.59;99982.06;4860042;28;108245;-93
2022/03/22 12:12:15;;;;;;;15.57;10.33;;;17.70;32.10;;;18.65;24.17;99980.19;4860456;28;122412;-92
2022/03/22 12:14:48;;;;;;;17.50;13.47;;;17.90;31.50;;;18.73;23.39;99978.50;4886303;28;123929;-93
2022/03/22 12:17:15;;;;;;;16.30;11.87;;;18.00;30.00;;;18.81;23.59;99976.84;4888288;28;109739;-94
2022/03/22 12:20:14;;;;;;;15.67;11.07;;;18.10;30.60;;;18.98;23.62;99969.13;4877962;28;108166;-94
2022/03/22 12:23:03;;;;;;;15.10;12.10;;;18.20;30.60;;;19.12;23.04;99963.25;4862655;28;122708;-93
2022/03/22 12:25:35;;;;;;;15.37;11.40;;;18.40;30.00;;;19.27;23.23;99961.81;4885315;28;123418;-92
2022/03/22 12:28:10;;;;;;;14.90;11.23;;;18.50;30.20;;;19.44;23.23;99955.25;4905606;28;108460;-94
2022/03/22 12:31:20;;;;;;;10.60;9.27;;;18.60;30.40;;;19.65;23.40;99955.22;4934141;28;109620;-95
2022/03/22 12:33:57;;;;;;;10.10;8.40;;;19.00;30.90;;;19.85;23.61;99951.59;4894766;28;123239;-93
2022/03/22 12:36:45;;;;;;;14.30;9.67;;;19.00;31.00;;;20.01;23.20;99950.91;4878337;28;122710;-94
2022/03/22 12:39:13;;;;;;;18.27;12.73;;;19.20;30.50;;;20.09;22.22;99947.16;4886248;28;109219;-93
2022/03/22 12:41:39;;;;;;;16.50;12.00;;;19.30;29.40;;;20.05;22.53;99949.84;4884215;28;108610;-94
2022/03/22 12:44:31;;;;;;;15.40;11.67;;;19.30;29.70;;;20.19;22.62;99949.53;4873665;28;124115;-94
2022/03/22 12:47:21;;;;;;;16.40;11.77;;;19.40;29.60;;;20.28;22.08;99939.03;4830590;29;122051;-94
2022/03/22 12:50:45;;;;;;;14.13;10.50;;;19.50;29.20;;;20.45;22.10;99934.34;4869303;29;109664;-94
2022/03/22 12:53:33;;;;;;;15.30;11.00;;;19.70;29.40;;;20.67;22.04;99939.50;4854316;28;108836;-94
2022/03/22 12:56:00;;;;;;;13.17;9.70;;;19.90;29.50;;;20.87;22.15;99931.28;4843381;29;122666;-93
2022/03/22 12:58:45;;;;;;;11.93;9.80;;;20.00;29.70;;;21.09;22.51;99929.94;4854427;29;122425;-94
2022/03/22 13:01:42;;;;;;;14.80;10.87;;;20.30;30.00;;;21.31;21.84;99928.59;4856008;29;107769;-94
2022/03/22 13:04:31;;;;;;;12.00;9.57;;;20.50;29.40;;;21.44;21.56;99926.56;4836699;29;109141;-95
2022/03/22 13:07:06;;;;;;;9.20;8.03;;;20.60;29.30;;;21.62;21.89;99917.44;4825779;29;123796;-94
2022/03/22 13:12:20;;;;;;;11.00;8.80;;;20.90;29.00;;;21.94;21.43;99911.06;4840388;29;109579;-92
2022/03/22 13:15:04;;;;;;;10.60;8.27;;;21.10;29.10;;;22.10;21.26;99906.25;4825859;29;108099;-94
2022/03/22 13:17:45;;;;;;;12.30;9.20;;;21.20;29.20;;;22.30;21.27;99904.41;4836816;29;122979;-94
2022/03/22 13:20:43;;;;;;;11.50;9.03;;;21.40;28.90;;;22.47;21.09;99903.19;4829099;28;122496;-93
2022/03/22 13:23:18;;;;;;;9.57;7.37;;;21.60;29.00;;;22.66;21.01;99906.06;4790448;29;108293;-92
2022/03/22 13:25:51;;;;;;;8.27;7.47;;;21.80;29.00;;;22.85;21.11;99901.66;4777495;29;108649;-92
2022/03/22 13:28:55;;;;;;;11.20;9.13;;;21.90;28.80;;;22.97;20.34;99890.28;4782364;29;123158;-94
2022/03/22 13:31:25;;;;;;;15.73;9.70;;;22.10;28.20;;;23.08;19.96;99887.69;4800806;29;123057;-94
2022/03/22 13:33:57;;;;;;;13.20;9.77;;;22.20;27.60;;;23.13;19.85;99888.22;4774987;29;109205;-94
2022/03/22 13:37:04;;;;;;;17.20;10.20;;;22.30;27.40;;;23.15;19.54;99890.66;4770962;29;108521;-94
2022/03/22 13:40:30;;;;;;;9.50;8.10;;;22.40;26.90;;;23.25;19.74;99884.41;4746070;29;124392;-94
2022/03/22 13:43:46;;;;;;;8.63;7.73;;;22.50;27.50;;;23.46;19.82;99877.59;4774845;29;123590;-93
2022/03/22 13:46:12;;;;;;;10.23;8.73;;;22.70;27.50;;;23.55;19.21;99881.78;4749096;29;108347;-92
2022/03/22 13:49:05;;;;;;;8.30;7.37;;;22.70;26.90;;;23.71;19.43;99872.41;4753665;29;109034;-95
2022/03/22 13:51:49;;;;;;;7.60;6.43;;;22.90;27.30;;;23.86;19.37;99874.34;4754513;29;123808;-94
2022/03/22 13:54:27;;;;;;;9.23;7.03;;;23.00;27.20;;;24.03;19.23;99875.84;4769075;29;122997;-95
2022/03/22 13:57:08;;;;;;;7.57;6.10;;;23.20;27.30;;;24.28;19.24;99872.59;4750544;29;107766;-94
2022/03/22 13:59:44;;;;;;;5.50;4.90;;;23.40;27.50;;;24.51;19.39;99872.59;4764484;29;107241;-94
2022/03/22 14:02:13;;;;;;;9.33;7.70;;;23.60;27.50;;;24.68;18.37;99858.72;4810539;29;123458;-94
2022/03/22 14:04:40;;;;;;;10.37;8.10;;;23.80;26.50;;;24.81;18.68;99861.31;4817673;29;121498;-95
2022/03/22 14:07:09;;;;;;;8.20;6.30;;;23.90;26.50;;;24.94;18.23;99861.91;4818138;29;109227;-95
2022/03/22 14:09:36;;;;;;;8.70;7.80;;;24.10;26.40;;;25.00;18.01;99847.03;4826255;29;107191;-94
2022/03/22 14:12:04;;;;;;;8.10;7.13;;;24.20;26.10;;;25.10;18.49;99848.38;4835500;29;122117;-93
2022/03/22 14:14:31;;;;;;;6.47;5.67;;;24.30;26.30;;;25.24;18.39;99845.75;4841471;29;121921;-93
2022/03/22 14:16:57;;;;;;;8.00;6.80;;;24.50;26.30;;;25.38;18.08;99842.25;4863789;28;106756;-92
2022/03/22 14:19:24;;;;;;;7.43;5.90;;;24.60;26.40;;;25.48;18.10;99844.41;4916738;28;108436;-92
2022/03/22 14:21:50;;;;;;;11.33;9.20;;;24.70;26.20;;;25.56;16.76;99846.09;4933493;28;123901;-94
2022/03/22 14:24:17;;;;;;;8.63;7.40;;;24.80;24.40;;;25.54;17.65;99840.00;4940608;28;123390;-94
2022/03/22 14:26:44;;;;;;;7.03;5.90;;;24.90;25.20;;;25.63;17.44;99833.22;4929015;28;108357;-92
2022/03/22 14:29:10;;;;;;;7.50;6.20;;;24.90;25.40;;;25.66;17.46;99832.47;4928493;28;110135;-93
2022/03/22 14:31:39;;;;;;;7.10;6.37;;;25.00;25.20;;;25.64;17.47;99830.00;4913581;28;124124;-93
2022/03/22 14:34:06;;;;;;;7.03;6.20;;;25.00;25.00;;;25.70;17.54;99828.44;4925882;28;124442;-92
2022/03/22 14:36:34;;;;;;;6.70;6.00;;;25.10;25.20;;;25.82;17.31;99832.19;4920296;28;108628;-92
2022/03/22 14:39:02;;;;;;;8.27;6.77;;;25.20;25.30;;;25.95;17.34;99833.53;4930360;28;109019;-93
2022/03/22 14:41:30;;;;;;;6.20;5.60;;;25.20;25.20;;;26.06;17.78;99822.28;4933196;28;123996;-96
2022/03/22 14:44:16;;;;;;;6.13;5.50;;;25.30;25.50;;;26.22;17.82;99822.81;4937757;28;123186;-95
2022/03/22 14:46:43;;;;;;;5.07;4.50;;;25.50;25.60;;;26.41;17.71;99822.56;4936573;28;109662;-92
2022/03/22 14:49:09;;;;;;;6.00;4.70;;;25.60;25.70;;;26.56;17.60;99815.00;4937102;28;109303;-96
2022/03/22 14:54:42;;;;;;;5.83;5.23;;;25.90;25.30;;;26.65;17.38;99814.63;4955494;28;124896;-93
2022/03/22 14:59:53;;;;;;;6.83;6.13;;;26.10;25.30;;;26.76;17.56;99814.69;4940977;28;110197;-93
2022/03/22 15:02:20;;;;;;;5.77;5.03;;;26.10;25.10;;;26.80;17.43;99810.66;4937190;28;123121;-92
2022/03/22 15:04:48;;;;;;;5.97;4.80;;;26.20;25.10;;;26.85;17.01;99810.28;4932111;28;124290;-94
2022/03/22 15:07:21;;;;;;;5.33;4.77;;;26.20;25.10;;;26.94;16.94;99809.09;4936620;28;108655;-94
2022/03/22 15:09:49;;;;;;;6.43;5.23;;;26.30;25.10;;;27.04;17.25;99808.34;4938329;28;108356;-93
2022/03/22 15:12:20;;;;;;;8.70;7.00;;;26.40;25.10;;;27.08;16.75;99792.13;4911040;28;124135;-94
2022/03/22 15:15:06;;;;;;;6.73;5.67;;;26.50;24.60;;;27.11;16.95;99802.69;4931185;28;123395;-93
2022/03/22 15:17:34;;;;;;;6.03;5.43;;;26.60;24.70;;;27.16;16.72;99802.28;4940002;28;109816;-94
2022/03/22 15:20:02;;;;;;;6.87;6.00;;;26.60;24.70;;;27.17;16.87;99801.13;4922329;28;109471;-95
2022/03/22 15:22:30;;;;;;;8.50;5.87;;;26.60;24.50;;;27.17;16.82;99798.28;4918516;28;122630;-94
2022/03/22 15:24:57;;;;;;;5.83;5.23;;;26.70;24.60;;;27.17;17.10;99795.44;4913905;28;124384;-94
2022/03/22 15:27:24;;;;;;;6.83;6.13;;;26.70;24.50;;;27.12;16.53;99795.00;4910370;28;108911;-94
2022/03/22 15:29:53;;;;;;;6.63;5.80;;;26.70;24.40;;;27.12;16.66;99784.44;4895269;28;107880;-93
2022/03/22 15:32:19;;;;;;;5.53;5.03;;;26.70;24.50;;;27.19;16.86;99778.84;4912246;28;124080;-90
2022/03/22 15:34:46;;;;;;;6.10;5.13;;;26.70;24.50;;;27.18;16.84;99791.38;4899018;28;122885;-94
2022/03/22 15:37:12;;;;;;;5.50;4.87;;;26.70;24.40;;;27.18;16.73;99785.72;4906863;28;108535;-94
2022/03/22 15:39:39;;;;;;;6.60;5.90;;;26.70;24.40;;;27.18;16.61;99780.03;4910678;28;108147;-93
2022/03/22 15:42:09;;;;;;;7.13;5.50;;;26.70;24.20;;;27.21;16.61;99772.75;4905521;28;124130;-91
2022/03/22 15:44:38;;;;;;;7.63;6.90;;;26.70;24.40;;;27.25;16.34;99774.38;4916404;28;121992;-93
2022/03/22 15:47:06;;;;;;;6.33;5.73;;;26.70;24.70;;;27.24;16.74;99772.78;4898013;28;109593;-92
2022/03/22 15:49:32;;;;;;;5.53;4.90;;;26.70;24.10;;;27.21;16.69;99776.38;4916243;28;108265;-94
2022/03/22 15:51:59;;;;;;;5.90;4.90;;;26.70;24.10;;;27.24;16.56;99769.94;4916436;28;122897;-92
2022/03/22 15:54:26;;;;;;;5.23;4.83;;;26.60;24.20;;;27.34;16.41;99778.84;4905489;28;124109;-92
2022/03/22 15:56:53;;;;;;;5.20;4.70;;;26.80;24.30;;;27.33;16.51;99775.22;4886939;28;109378;-93
2022/03/22 15:59:20;;;;;;;7.83;5.20;;;26.80;24.20;;;27.32;16.84;99773.56;4923082;28;109188;-95
2022/03/22 16:01:48;;;;;;;6.20;5.60;;;26.80;24.00;;;27.28;16.42;99770.75;4940138;28;122483;-94
2022/03/22 16:04:14;;;;;;;6.43;5.03;;;26.80;24.10;;;27.31;16.74;99769.94;4919741;28;121993;-91
2022/03/22 16:06:41;;;;;;;5.43;4.90;;;26.80;24.10;;;27.34;16.37;99767.50;4917065;28;110633;-92
2022/03/22 16:09:10;;;;;;;6.00;4.77;;;26.90;24.10;;;27.33;16.81;99768.72;4929860;28;110344;-94
2022/03/22 16:11:37;;;;;;;5.50;4.80;;;26.90;24.10;;;27.30;16.88;99776.81;4923750;28;122362;-95
2022/03/22 16:14:26;;;;;;;6.00;5.07;;;26.90;24.10;;;27.30;16.85;99767.50;4919795;28;125272;-93
2022/03/22 16:16:57;;;;;;;10.30;7.13;;;26.90;24.00;;;27.24;16.48;99766.25;4877975;28;109194;-95
2022/03/22 16:19:24;;;;;;;6.60;5.30;;;26.90;23.80;;;27.19;16.51;99770.31;4870394;28;108958;-95
2022/03/22 16:21:52;;;;;;;7.20;5.00;;;26.80;23.90;;;27.18;17.06;99770.72;4861947;28;124175;-94
2022/03/22 16:24:20;;;;;;;5.90;5.30;;;26.80;24.00;;;27.17;16.95;99764.22;4860236;28;124017;-95
2022/03/22 16:26:56;;;;;;;5.93;5.37;;;26.80;24.00;;;27.11;16.71;99771.50;4877287;28;109551;-93
2022/03/22 16:29:23;;;;;;;7.03;5.90;;;26.70;23.90;;;27.05;16.58;99773.06;4877006;28;109311;-93
2022/03/22 16:31:52;;;;;;;8.90;6.50;;;26.70;24.00;;;26.95;16.75;99776.69;4875281;28;123249;-94
2022/03/22 16:37:04;;;;;;;6.53;5.90;;;26.60;24.00;;;26.69;16.78;99774.97;4871763;28;109572;-93
2022/03/22 16:39:33;;;;;;;7.50;6.80;;;26.40;23.90;;;26.56;16.88;99771.66;4874085;28;108502;-94
2022/03/22 16:42:09;;;;;;;7.77;5.97;;;26.40;24.00;;;26.45;16.92;99777.25;4879881;28;124656;-94
2022/03/22 16:44:54;;;;;;;7.30;6.10;;;26.20;24.00;;;26.36;17.39;99779.63;4863654;28;123776;-92
2022/03/22 16:47:22;;;;;;;7.50;6.70;;;26.10;24.10;;;26.30;17.28;99776.34;4877837;28;108903;-95
2022/03/22 16:50:03;;;;;;;6.37;5.53;;;26.10;24.30;;;26.23;17.48;99781.97;4876666;28;108102;-95
2022/03/22 16:52:30;;;;;;;6.73;6.03;;;26.00;24.40;;;26.14;17.26;99784.31;4882820;28;124305;-95
2022/03/22 16:54:58;;;;;;;6.90;5.63;;;25.90;24.50;;;26.05;17.46;99781.03;4924272;28;122004;-94
2022/03/22 16:57:29;;;;;;;7.00;5.73;;;25.80;24.40;;;25.92;17.36;99783.34;4923249;28;109548;-95
2022/03/22 16:59:57;;;;;;;7.43;6.07;;;25.70;24.40;;;25.77;17.52;99785.25;4920000;28;109185;-95
2022/03/22 17:02:45;;;;;;;6.47;5.50;;;25.60;24.50;;;25.59;17.97;99781.44;4924616;28;123542;-94
2022/03/22 17:05:32;;;;;;;7.33;6.20;;;25.40;24.40;;;25.34;18.05;99790.50;4927643;28;121870;-94
2022/03/22 17:08:18;;;;;;;10.90;6.57;;;25.20;24.50;;;25.12;18.02;99787.41;4926422;28;108628;-95
2022/03/22 17:10:49;;;;;;;6.70;5.43;;;25.10;24.70;;;24.96;18.15;99789.63;4931986;28;108544;-95
2022/03/22 17:13:18;;;;;;;6.73;5.50;;;24.80;24.60;;;24.80;18.41;99789.03;4931872;28;123538;-94
2022/03/22 17:15:51;;;;;;;7.13;6.40;;;24.70;24.80;;;24.61;18.37;99789.97;4921495;28;123668;-95
2022/03/22 17:18:19;;;;;;;7.10;6.10;;;25.30;25.30;;;24.44;18.46;99794.19;4899650;28;108352;-94
2022/03/22 17:20:46;;;;;;;7.67;5.80;;;24.30;24.90;;;24.30;18.84;99788.31;4937934;28;109879;-95
2022/03/22 17:26:58;;;;;;;7.10;5.90;;;23.90;25.00;;;23.83;19.01;99786.75;4949988;28;124392;-95
2022/03/22 17:29:46;;;;;;;8.70;6.33;;;23.70;25.10;;;23.60;18.96;99793.22;4927423;28;109552;-95
2022/03/22 17:32:24;;;;;;;6.83;6.10;;;23.60;25.20;;;23.43;19.21;99805.81;4948326;28;109491;-93
2022/03/22 17:35:35;;;;;;;7.73;6.23;;;23.40;25.30;;;23.14;19.38;99805.25;4930630;28;122725;-94
2022/03/22 17:38:04;;;;;;;8.53;7.40;;;23.10;25.20;;;22.92;19.32;99803.97;4935282;28;124323;-89
2022/03/22 17:40:30;;;;;;;9.90;7.23;;;22.90;25.40;;;22.72;19.61;99805.16;4955700;28;109677;-87
2022/03/22 17:42:57;;;;;;;9.77;6.67;;;22.60;25.60;;;22.52;19.63;99801.50;4946740;28;110410;-90
2022/03/22 17:46:21;;;;;;;7.73;6.47;;;22.40;25.70;;;22.28;19.87;99805.41;4962555;28;124831;-92
2022/03/22 17:48:48;;;;;;;12.73;7.10;;;22.30;25.70;;;22.11;20.13;99805.75;4957630;28;126741;-92
2022/03/22 17:51:18;;;;;;;6.70;6.10;;;22.00;25.80;;;21.94;20.31;99807.75;4954478;28;109619;-94
2022/03/22 17:58:03;;;;;;;6.87;6.17;;;21.60;25.90;;;21.50;20.50;99821.09;4953750;28;124416;-93
2022/03/22 18:04:11;;;;;;;7.30;6.30;;;21.20;26.20;;;21.16;21.24;99815.75;4949496;28;110479;-94
2022/03/22 18:06:57;;;;;;;7.77;6.13;;;21.00;26.50;;;21.06;20.94;99819.06;4943955;28;108840;-94
2022/03/22 18:09:24;;;;;;;8.80;6.30;;;20.90;26.70;;;20.99;21.38;99826.50;4950832;28;123486;-93
2022/03/22 18:11:52;;;;;;;8.40;6.63;;;20.70;26.80;;;20.90;21.20;99823.81;4916548;28;123211;-94
2022/03/22 18:14:23;;;;;;;9.20;7.40;;;20.60;26.90;;;20.81;21.36;99821.16;4946582;28;109705;-95
2022/03/22 18:17:28;;;;;;;8.53;6.73;;;20.50;26.90;;;20.68;21.63;99833.59;4950674;28;109405;-95
2022/03/22 18:20:13;;;;;;;8.60;6.07;;;20.40;27.00;;;20.59;21.77;99844.16;4940782;28;124505;-93
2022/03/22 18:22:41;;;;;;;7.87;6.97;;;20.30;27.20;;;20.50;21.62;99838.66;4938904;28;123588;-93